Time;durP1;ratioP1;P1;durP2;ratioP2;P2;SDS_P1;SDS_P2;PMS_P1;PMS_P2;Temp;Humidity;BMP_temperature;BMP_pressure;BME280_temperature;BME280_humidity;BME280_pressure;Samples;Min_cycle;Max_cycle;Signal;HPM_P1;HPM_P2
2022/06/04 00:01:42;;;;;;;5.83;5.33;;;16.70;99.90;;;;;;5070992;28;20450;-74
2022/06/04 00:04:12;;;;;;;7.07;5.63;;;16.60;99.90;;;;;;5071526;28;20443;-73
2022/06/04 00:06:38;;;;;;;6.47;5.77;;;16.60;99.90;;;;;;5071022;28;20520;-73
2022/06/04 00:09:06;;;;;;;8.20;6.43;;;16.60;99.90;;;;;;5070064;28;20452;-73
2022/06/04 00:17:03;;;;;;;6.47;5.60;;;16.80;99.90;;;;;;5070563;28;20437;-73
2022/06/04 00:19:30;;;;;;;5.93;5.43;;;16.70;99.90;;;;;;5070677;28;20449;-72
2022/06/04 00:21:57;;;;;;;6.50;5.90;;;16.60;99.90;;;;;;5070718;28;20568;-73
2022/06/04 00:24:24;;;;;;;6.13;5.57;;;16.60;99.90;;;;;;5071647;28;20460;-73
2022/06/04 00:26:51;;;;;;;7.10;6.40;;;16.60;99.90;;;;;;5070548;28;20597;-73
2022/06/04 00:29:19;;;;;;;6.73;5.90;;;16.60;99.90;;;;;;5070620;28;20449;-72
2022/06/04 00:31:46;;;;;;;6.20;5.47;;;16.60;99.90;;;;;;5071147;28;20456;-73
2022/06/04 00:34:15;;;;;;;6.80;6.10;;;16.50;99.90;;;;;;5071863;28;20455;-73
2022/06/04 00:36:42;;;;;;;7.03;6.33;;;16.40;99.90;;;;;;5072419;28;20980;-74
2022/06/04 00:39:09;;;;;;;6.43;5.53;;;16.40;99.90;;;;;;5074732;28;20468;-73
2022/06/04 00:41:42;;;;;;;6.07;5.40;;;16.40;99.90;;;;;;5074471;28;20449;-73
2022/06/04 00:44:54;;;;;;;8.20;6.17;;;16.50;99.90;;;;;;5073696;28;20450;-73
2022/06/04 00:47:25;;;;;;;8.10;6.73;;;16.40;99.90;;;;;;5023708;28;20442;-73
2022/06/04 00:49:52;;;;;;;7.87;6.43;;;16.30;99.90;;;;;;5056959;28;20442;-73
2022/06/04 00:52:20;;;;;;;7.60;6.43;;;16.40;99.90;;;;;;5070560;28;20995;-73
2022/06/04 00:54:51;;;;;;;6.60;6.00;;;16.30;99.90;;;;;;5070213;28;20774;-73
2022/06/04 00:57:44;;;;;;;7.67;6.67;;;16.30;99.90;;;;;;5073829;28;20543;-73
2022/06/04 01:00:15;;;;;;;7.40;6.70;;;16.30;99.90;;;;;;5072717;28;20884;-73
2022/06/04 01:03:05;;;;;;;8.30;6.90;;;16.20;99.90;;;;;;5074168;28;20774;-74
2022/06/04 01:05:37;;;;;;;7.53;6.10;;;;;;;;;;5074784;28;20895;-73
2022/06/04 01:08:34;;;;;;;7.37;5.93;;;16.10;99.90;;;;;;5074226;28;20448;-73
2022/06/04 01:11:09;;;;;;;7.73;5.77;;;16.10;99.90;;;;;;5074380;28;20467;-73
2022/06/04 01:13:56;;;;;;;7.67;6.50;;;16.30;99.90;;;;;;5074730;28;20812;-73
2022/06/04 01:16:30;;;;;;;7.53;6.13;;;16.30;99.90;;;;;;5074777;28;20445;-72
2022/06/04 01:19:07;;;;;;;8.53;6.30;;;16.20;99.90;;;;;;5073323;28;20443;-73
2022/06/04 01:21:47;;;;;;;7.47;6.40;;;16.10;99.90;;;;;;5074503;28;20448;-73
2022/06/04 01:24:34;;;;;;;6.57;5.90;;;16.20;99.90;;;;;;5074598;28;20450;-73
2022/06/04 01:27:14;;;;;;;6.27;5.67;;;16.20;99.90;;;;;;5073565;28;20477;-73
2022/06/04 01:29:49;;;;;;;7.00;6.30;;;16.20;99.90;;;;;;5074178;28;20441;-73
2022/06/04 01:32:22;;;;;;;7.63;6.83;;;16.20;99.90;;;;;;5074309;28;20459;-73
2022/06/04 01:34:55;;;;;;;8.57;7.60;;;16.10;99.90;;;;;;5073849;28;20448;-73
2022/06/04 01:37:27;;;;;;;7.77;6.97;;;16.10;99.90;;;;;;5074405;28;20560;-73
2022/06/04 01:42:44;;;;;;;7.63;6.37;;;16.00;99.90;;;;;;5074102;28;20444;-73
2022/06/04 01:45:15;;;;;;;6.80;6.10;;;16.00;99.90;;;;;;5074195;28;20447;-73
2022/06/04 01:47:46;;;;;;;10.00;6.80;;;16.20;99.90;;;;;;5072949;28;20531;-73
2022/06/04 01:50:17;;;;;;;6.93;6.23;;;16.00;99.90;;;;;;5074078;28;20448;-73
2022/06/04 01:52:47;;;;;;;13.60;7.13;;;16.00;99.90;;;;;;5073145;28;20530;-73
2022/06/04 01:55:17;;;;;;;6.93;6.03;;;16.00;99.90;;;;;;5074183;28;20459;-73
2022/06/04 01:57:50;;;;;;;8.00;5.80;;;15.90;99.90;;;;;;5072653;28;20913;-73
2022/06/04 02:00:21;;;;;;;7.33;6.53;;;15.90;99.90;;;;;;5073539;28;20447;-73
2022/06/04 02:02:54;;;;;;;8.40;7.13;;;15.90;99.90;;;;;;5072822;28;20458;-73
2022/06/04 02:05:26;;;;;;;7.70;7.00;;;15.90;99.90;;;;;;5073573;28;20445;-73
2022/06/04 02:07:55;;;;;;;7.10;6.00;;;15.80;99.90;;;;;;5071912;28;20454;-73
2022/06/04 02:10:28;;;;;;;8.20;6.80;;;15.80;99.90;;;;;;5073508;28;20456;-73
2022/06/04 02:13:00;;;;;;;10.00;7.57;;;15.80;99.90;;;;;;5072999;28;20939;-73
2022/06/04 02:15:31;;;;;;;7.00;6.30;;;15.80;99.90;;;;;;5073409;28;20527;-73
2022/06/04 02:18:00;;;;;;;7.37;6.67;;;15.80;99.90;;;;;;5072560;28;20789;-72
2022/06/04 02:20:27;;;;;;;6.90;6.23;;;15.70;99.90;;;;;;5073051;28;20465;-72
2022/06/04 02:22:55;;;;;;;7.23;6.37;;;15.70;99.90;;;;;;5072600;28;20849;-72
2022/06/04 02:25:22;;;;;;;6.93;6.23;;;15.60;99.90;;;;;;5072868;28;20490;-72
2022/06/04 02:27:51;;;;;;;7.53;6.83;;;15.70;99.90;;;;;;5072337;28;20802;-71
2022/06/04 02:30:21;;;;;;;7.70;6.43;;;15.70;99.90;;;;;;5073267;28;20465;-72
2022/06/04 02:33:02;;;;;;;6.73;5.87;;;15.70;99.90;;;;;;5072661;28;20452;-72
2022/06/04 02:35:35;;;;;;;8.33;7.47;;;15.60;99.90;;;;;;5060777;28;20445;-72
2022/06/04 02:38:07;;;;;;;6.33;5.73;;;;;;;;;;5072007;28;20484;-72
2022/06/04 02:40:36;;;;;;;10.23;6.30;;;;;;;;;;5072519;28;20487;-72
2022/06/04 02:43:06;;;;;;;7.17;5.30;;;;;;;;;;5068586;28;20489;-72
2022/06/04 02:45:36;;;;;;;8.60;7.40;;;;;;;;;;5069829;28;20538;-77
2022/06/04 02:48:09;;;;;;;7.10;6.00;;;;;;;;;;5071695;28;20450;-76
2022/06/04 02:50:42;;;;;;;6.50;5.90;;;15.40;99.90;;;;;;5072454;28;20439;-75
2022/06/04 02:53:10;;;;;;;7.93;5.73;;;15.30;99.90;;;;;;5072709;28;20960;-77
2022/06/04 02:55:42;;;;;;;7.37;6.60;;;15.40;99.90;;;;;;5072716;28;20460;-76
2022/06/04 02:58:13;;;;;;;7.83;6.80;;;15.50;99.90;;;;;;5072155;28;20439;-76
2022/06/04 03:00:43;;;;;;;8.10;6.87;;;15.60;99.90;;;;;;5067681;28;20446;-76
2022/06/04 03:03:11;;;;;;;7.83;6.90;;;15.70;99.90;;;;;;5064228;28;20447;-76
2022/06/04 03:05:39;;;;;;;8.97;7.73;;;15.60;99.90;;;;;;5068383;28;20508;-76
2022/06/04 03:08:07;;;;;;;6.63;6.03;;;15.70;99.90;;;;;;5070814;28;20452;-75
2022/06/04 03:10:36;;;;;;;6.67;5.60;;;15.60;99.90;;;;;;5068844;28;20788;-76
2022/06/04 03:13:04;;;;;;;7.80;6.73;;;15.50;99.90;;;;;;5071268;28;20504;-76
2022/06/04 03:15:31;;;;;;;6.10;5.30;;;15.60;99.90;;;;;;5071730;28;20451;-77
2022/06/04 03:17:59;;;;;;;7.47;5.30;;;15.60;99.90;;;;;;5066821;28;21017;-76
2022/06/04 03:20:27;;;;;;;7.40;6.17;;;15.50;99.90;;;;;;5072400;28;20442;-76
2022/06/04 03:22:55;;;;;;;6.80;5.70;;;15.70;99.90;;;;;;5076044;28;20453;-77
2022/06/04 03:25:23;;;;;;;7.23;5.13;;;15.70;99.90;;;;;;5077432;28;20474;-76
2022/06/04 03:27:50;;;;;;;7.37;5.57;;;15.80;99.90;;;;;;5078066;28;20496;-76
2022/06/04 03:30:18;;;;;;;7.00;5.73;;;15.80;99.90;;;;;;5076381;28;20452;-77
2022/06/04 03:32:44;;;;;;;7.17;5.90;;;15.80;99.90;;;;;;5077126;28;20447;-76
2022/06/04 03:35:14;;;;;;;5.63;5.03;;;15.80;99.90;;;;;;5076885;28;20473;-76
2022/06/04 03:37:41;;;;;;;5.57;4.73;;;15.80;99.90;;;;;;5075642;28;20441;-76
2022/06/04 03:40:09;;;;;;;6.63;5.93;;;;;;;;;;5061326;28;20497;-74
2022/06/04 03:42:36;;;;;;;5.97;5.37;;;;;;;;;;5074685;28;20484;-75
2022/06/04 03:45:04;;;;;;;6.87;6.00;;;;;;;;;;5074849;28;20874;-76
2022/06/04 03:47:36;;;;;;;6.97;6.17;;;;;;;;;;5073917;28;20482;-77
2022/06/04 03:50:03;;;;;;;6.03;4.83;;;;;;;;;;5068473;28;20522;-74
2022/06/04 03:52:31;;;;;;;5.60;4.90;;;;;;;;;;5067255;28;20443;-77
2022/06/04 03:54:59;;;;;;;7.00;5.03;;;;;;;;;;5071474;28;20534;-80
2022/06/04 03:57:41;;;;;;;7.10;6.40;;;;;;;;;;5071228;28;20450;-78
2022/06/04 04:00:14;;;;;;;5.53;5.00;;;;;;;;;;5071725;28;20471;-79
2022/06/04 04:02:42;;;;;;;7.90;7.20;;;;;;;;;;5070721;28;20444;-75
2022/06/04 04:05:11;;;;;;;6.00;4.80;;;;;;;;;;5071421;28;20955;-78
2022/06/04 04:07:40;;;;;;;5.53;4.83;;;;;;;;;;5071189;28;20479;-78
2022/06/04 04:10:09;;;;;;;5.50;4.57;;;15.70;99.90;;;;;;5071390;28;20460;-78
2022/06/04 04:12:36;;;;;;;8.03;5.33;;;16.10;99.90;;;;;;5061735;28;20456;-75
2022/06/04 04:15:04;;;;;;;6.47;4.70;;;16.20;99.90;;;;;;5071117;28;20461;-79
2022/06/04 04:17:31;;;;;;;6.50;4.57;;;16.30;99.90;;;;;;5071122;28;20565;-80
2022/06/04 04:19:58;;;;;;;5.90;4.60;;;16.30;99.90;;;;;;5070468;28;20449;-75
2022/06/04 04:22:25;;;;;;;5.73;5.23;;;16.50;99.90;;;;;;5070984;28;20445;-79
2022/06/04 04:24:55;;;;;;;6.47;5.00;;;16.60;99.90;;;;;;5071804;28;20492;-79
2022/06/04 04:27:22;;;;;;;6.53;4.37;;;16.70;99.90;;;;;;5074580;28;20591;-79
2022/06/04 04:29:49;;;;;;;5.93;5.43;;;16.70;99.90;;;;;;5070233;28;20510;-81
2022/06/04 04:32:16;;;;;;;6.00;5.27;;;16.80;99.90;;;;;;5070479;28;20556;-73
2022/06/04 04:34:43;;;;;;;4.13;3.70;;;16.90;99.90;;;;;;5070416;28;20532;-76
2022/06/04 04:37:10;;;;;;;4.80;4.30;;;16.90;99.90;;;;;;5070679;28;20952;-75
2022/06/04 04:39:37;;;;;;;8.80;6.33;;;16.90;99.90;;;;;;5068486;28;20473;-78
2022/06/04 04:42:07;;;;;;;5.33;4.83;;;17.00;99.90;;;;;;5074870;28;20438;-77
2022/06/04 04:44:34;;;;;;;4.93;4.00;;;17.10;99.90;;;;;;5067679;28;20528;-77
2022/06/04 04:47:00;;;;;;;5.43;4.93;;;17.20;99.90;;;;;;5065618;28;20487;-76
2022/06/04 04:49:27;;;;;;;4.60;4.20;;;17.60;99.90;;;;;;5070328;28;20452;-77
2022/06/04 04:51:54;;;;;;;4.60;4.20;;;;;;;;;;5065831;28;20928;-77
2022/06/04 04:54:21;;;;;;;5.10;4.40;;;;;;;;;;5069932;28;20442;-78
2022/06/04 04:56:49;;;;;;;7.10;4.70;;;;;;;;;;5069686;28;20544;-78
2022/06/04 04:59:17;;;;;;;8.13;4.43;;;;;;;;;;5070223;28;20450;-76
2022/06/04 05:01:44;;;;;;;5.77;5.17;;;;;;;;;;5070057;28;20536;-75
2022/06/04 05:04:12;;;;;;;5.60;4.20;;;;;;;;;;5070582;28;20449;-77
2022/06/04 05:06:39;;;;;;;6.20;4.03;;;;;;;;;;5070511;28;20501;-77
2022/06/04 05:09:06;;;;;;;4.17;3.77;;;;;;;;;;5068898;28;20457;-76
2022/06/04 05:11:33;;;;;;;4.80;4.37;;;;;;;;;;5070209;28;20540;-78
2022/06/04 05:14:01;;;;;;;5.10;4.70;;;;;;;;;;5075120;28;20454;-79
2022/06/04 05:16:31;;;;;;;4.80;4.30;;;;;;;;;;5070664;28;20452;-76
2022/06/04 05:18:58;;;;;;;5.20;4.70;;;;;;;;;;5069659;28;20442;-75
2022/06/04 05:21:26;;;;;;;4.57;3.70;;;;;;;;;;5070596;28;20811;-74
2022/06/04 05:23:55;;;;;;;4.13;3.80;;;;;;;;;;5069881;28;20454;-74
2022/06/04 05:26:23;;;;;;;5.93;4.77;;;;;;;;;;5070419;28;20445;-74
2022/06/04 05:28:50;;;;;;;4.43;3.90;;;;;;;;;;5056491;28;20453;-79
2022/06/04 05:31:17;;;;;;;5.23;4.47;;;;;;;;;;5070159;28;20442;-77
2022/06/04 05:33:46;;;;;;;4.20;3.73;;;;;;;;;;5070087;28;20445;-77
2022/06/04 05:36:13;;;;;;;5.73;5.10;;;;;;;;;;5066610;28;20446;-76
2022/06/04 05:38:41;;;;;;;6.53;5.10;;;;;;;;;;5069464;28;20450;-78
2022/06/04 05:41:09;;;;;;;4.77;4.27;;;;;;;;;;5070029;28;20565;-73
2022/06/04 05:43:36;;;;;;;3.83;3.43;;;;;;;;;;5070527;28;20456;-75
2022/06/04 05:46:05;;;;;;;4.17;3.37;;;;;;;;;;5065941;28;20468;-78
2022/06/04 05:48:32;;;;;;;6.37;3.60;;;17.90;99.90;;;;;;5072918;28;20477;-74
2022/06/04 05:51:00;;;;;;;6.60;3.80;;;19.00;99.90;;;;;;5075062;28;20434;-74
2022/06/04 05:53:27;;;;;;;6.07;5.37;;;19.00;99.90;;;;;;5073883;28;20469;-75
2022/06/04 05:55:55;;;;;;;6.80;3.90;;;19.10;99.90;;;;;;5079050;28;20444;-75
2022/06/04 05:58:21;;;;;;;4.43;4.03;;;19.10;99.90;;;;;;5077600;28;20912;-74
2022/06/04 06:00:48;;;;;;;3.70;3.40;;;19.10;99.90;;;;;;5075592;28;20434;-78
2022/06/04 06:03:15;;;;;;;4.83;3.97;;;19.00;99.90;;;;;;5071183;28;20455;-74
2022/06/04 06:05:44;;;;;;;3.97;3.57;;;18.90;99.90;;;;;;5074553;28;20780;-69
2022/06/04 06:08:13;;;;;;;3.93;3.60;;;18.80;99.90;;;;;;5074757;28;20469;-78
2022/06/04 06:10:41;;;;;;;3.13;2.67;;;18.90;99.90;;;;;;5073611;28;20449;-80
2022/06/04 06:13:08;;;;;;;3.47;3.17;;;18.90;99.90;;;;;;5065873;28;20450;-76
2022/06/04 06:15:35;;;;;;;3.80;3.50;;;18.90;99.90;;;;;;5074284;28;20507;-79
2022/06/04 06:18:03;;;;;;;3.30;2.33;;;18.80;99.90;;;;;;5073728;28;20499;-76
2022/06/04 06:20:30;;;;;;;4.47;3.33;;;18.10;99.90;;;;;;5074137;28;20433;-75
2022/06/04 06:22:57;;;;;;;3.93;3.10;;;17.80;99.90;;;;;;5076543;28;20498;-75
2022/06/04 06:25:25;;;;;;;3.60;3.30;;;17.60;99.90;;;;;;5074278;28;20437;-77
2022/06/04 06:27:52;;;;;;;4.00;3.60;;;17.50;99.90;;;;;;5072021;28;20480;-75
2022/06/04 06:30:19;;;;;;;5.77;3.77;;;17.50;99.90;;;;;;5073254;28;20452;-74
2022/06/04 06:32:46;;;;;;;6.10;4.20;;;17.40;99.90;;;;;;5072475;28;20430;-74
2022/06/04 06:35:13;;;;;;;4.90;4.40;;;17.40;99.90;;;;;;5072893;28;20442;-74
2022/06/04 06:37:41;;;;;;;4.30;3.87;;;17.40;99.90;;;;;;5073312;28;20453;-74
2022/06/04 06:40:08;;;;;;;4.70;4.10;;;17.40;99.90;;;;;;5072956;28;20474;-75
2022/06/04 06:42:37;;;;;;;4.83;4.33;;;17.50;99.90;;;;;;5072971;28;20525;-73
2022/06/04 06:45:04;;;;;;;4.80;4.10;;;17.60;99.90;;;;;;5059431;28;20472;-74
2022/06/04 06:47:33;;;;;;;6.43;4.70;;;17.70;99.90;;;;;;5072673;28;20488;-74
2022/06/04 06:50:00;;;;;;;4.63;3.80;;;17.90;99.90;;;;;;5072006;28;20446;-75
2022/06/04 06:52:28;;;;;;;5.53;4.80;;;18.00;99.90;;;;;;5072526;28;20442;-74
2022/06/04 06:54:55;;;;;;;4.53;4.10;;;18.10;99.90;;;;;;5071060;28;20830;-74
2022/06/04 06:57:22;;;;;;;5.00;4.50;;;18.20;99.90;;;;;;5072524;28;20449;-74
2022/06/04 06:59:50;;;;;;;4.90;4.40;;;18.30;99.90;;;;;;5071798;28;20556;-75
2022/06/04 07:02:17;;;;;;;4.73;3.73;;;18.30;99.90;;;;;;5072525;28;20752;-73
2022/06/04 07:04:44;;;;;;;4.67;4.27;;;18.40;99.90;;;;;;5071268;28;20438;-73
2022/06/04 07:07:11;;;;;;;4.53;4.13;;;18.40;99.90;;;;;;5072097;28;20487;-74
2022/06/04 07:09:41;;;;;;;4.27;3.87;;;18.40;99.90;;;;;;5072741;28;20449;-73
2022/06/04 07:12:09;;;;;;;4.40;4.00;;;;;;;;;;5064020;28;20469;-74
2022/06/04 07:14:35;;;;;;;5.40;4.30;;;18.40;99.90;;;;;;5071594;28;20448;-73
2022/06/04 07:17:05;;;;;;;4.83;4.33;;;18.50;99.90;;;;;;5071430;28;20473;-74
2022/06/04 07:19:32;;;;;;;5.53;4.47;;;18.60;99.90;;;;;;5037285;28;20476;-75
2022/06/04 07:21:59;;;;;;;5.80;5.10;;;18.50;99.90;;;;;;5071455;28;20529;-74
2022/06/04 07:24:26;;;;;;;4.03;3.63;;;18.70;99.90;;;;;;5072240;28;20449;-74
2022/06/04 07:26:53;;;;;;;3.53;3.23;;;18.70;99.90;;;;;;5070727;28;20438;-73
2022/06/04 07:29:21;;;;;;;5.70;4.83;;;18.80;99.90;;;;;;5071986;28;20810;-76
2022/06/04 07:31:48;;;;;;;5.20;4.70;;;19.00;99.90;;;;;;5071661;28;20437;-75
2022/06/04 07:34:16;;;;;;;6.80;5.27;;;19.30;99.90;;;;;;5071854;28;20449;-75
2022/06/04 07:36:45;;;;;;;7.60;4.20;;;19.40;99.90;;;;;;5071113;28;20437;-74
2022/06/04 07:39:14;;;;;;;6.40;4.97;;;;;;;;;;5071386;28;20477;-75
2022/06/04 07:41:43;;;;;;;5.90;4.23;;;;;;;;;;5071564;28;20916;-74
2022/06/04 07:44:10;;;;;;;4.53;4.03;;;;;;;;;;5072274;28;20446;-75
2022/06/04 07:46:38;;;;;;;4.70;4.07;;;;;;;;;;5071143;28;20456;-75
2022/06/04 07:49:06;;;;;;;5.23;4.73;;;;;;;;;;5070703;28;20488;-75
2022/06/04 07:51:35;;;;;;;4.83;4.30;;;;;;;;;;5071946;28;20450;-75
2022/06/04 07:54:02;;;;;;;6.53;5.07;;;;;;;;;;5071220;28;20440;-75
2022/06/04 07:56:29;;;;;;;4.77;4.30;;;;;;;;;;5071088;28;20900;-75
2022/06/04 07:58:56;;;;;;;6.20;5.00;;;;;;;;;;5071023;28;20541;-76
2022/06/04 08:01:25;;;;;;;6.20;4.50;;;19.50;99.90;;;;;;5071321;28;20767;-76
2022/06/04 08:03:53;;;;;;;8.03;4.10;;;;;;;;;;5070610;28;20435;-76
2022/06/04 08:06:21;;;;;;;8.57;4.63;;;;;;;;;;5070480;28;20857;-76
2022/06/04 08:08:51;;;;;;;5.27;4.70;;;;;;;;;;5070054;28;20943;-76
2022/06/04 08:11:35;;;;;;;4.80;4.23;;;19.80;99.90;;;;;;5066530;28;20442;-76
2022/06/04 08:14:06;;;;;;;6.90;5.03;;;20.40;99.90;;;;;;5069205;28;21079;-76
2022/06/04 08:16:33;;;;;;;10.70;6.67;;;20.40;99.90;;;;;;5071077;28;20457;-76
2022/06/04 08:19:00;;;;;;;5.80;5.20;;;20.40;99.90;;;;;;5070930;28;20632;-77
2022/06/04 08:21:27;;;;;;;6.63;5.80;;;20.60;99.90;;;;;;5072380;28;20460;-76
2022/06/04 08:23:55;;;;;;;4.70;4.30;;;20.70;99.90;;;;;;5071644;28;20438;-77
2022/06/04 08:26:22;;;;;;;5.27;4.73;;;20.70;99.90;;;;;;5070955;28;20544;-77
2022/06/04 08:28:50;;;;;;;6.00;5.40;;;21.00;99.90;;;;;;5070908;28;20469;-76
2022/06/04 08:31:17;;;;;;;5.00;4.60;;;21.20;99.90;;;;;;5070995;28;20853;-76
2022/06/04 08:33:45;;;;;;;6.33;5.10;;;21.30;99.90;;;;;;5070134;28;20798;-76
2022/06/04 08:36:13;;;;;;;4.77;4.30;;;21.50;99.90;;;;;;5074890;28;20441;-77
2022/06/04 08:38:41;;;;;;;4.00;3.70;;;21.70;99.90;;;;;;5070171;28;20492;-77
2022/06/04 08:41:20;;;;;;;9.13;5.70;;;21.60;99.90;;;;;;5070380;28;20470;-76
2022/06/04 08:43:53;;;;;;;8.27;7.47;;;21.50;99.90;;;;;;5065848;28;20440;-76
2022/06/04 08:46:26;;;;;;;5.23;4.73;;;21.30;99.90;;;;;;5068195;28;20445;-77
2022/06/04 08:48:53;;;;;;;5.03;4.50;;;21.20;99.90;;;;;;5069934;28;20481;-78
2022/06/04 08:51:25;;;;;;;3.90;3.40;;;21.50;99.90;;;;;;5070053;28;20446;-78
2022/06/04 08:53:54;;;;;;;5.07;4.57;;;21.40;99.90;;;;;;5069832;28;20525;-77
2022/06/04 08:59:22;;;;;;;5.27;4.67;;;21.90;99.90;;;;;;5043258;28;20446;-77
2022/06/04 09:01:53;;;;;;;4.90;4.23;;;22.10;75.90;;;;;;5054167;28;20438;-78
2022/06/04 09:04:37;;;;;;;4.43;4.13;;;21.80;99.90;;;;;;5068876;28;20445;-78
2022/06/04 09:07:10;;;;;;;6.50;4.47;;;21.80;99.90;;;;;;5069841;28;20445;-79
2022/06/04 09:09:44;;;;;;;6.13;4.80;;;21.80;99.90;;;;;;5069467;28;20513;-77
2022/06/04 09:12:28;;;;;;;4.83;4.40;;;22.20;1.00;;;;;;5070722;28;20438;-77
2022/06/04 09:15:02;;;;;;;3.83;3.37;;;22.30;1.00;;;;;;5063355;28;20445;-78
2022/06/04 09:17:38;;;;;;;4.80;3.90;;;22.70;1.00;;;;;;5069587;28;20438;-78
2022/06/04 09:20:23;;;;;;;4.97;3.60;;;23.10;99.90;;;;;;5073791;28;20920;-79
2022/06/04 09:22:52;;;;;;;4.70;4.20;;;23.40;1.00;;;;;;5073799;28;20445;-79
2022/06/04 09:25:24;;;;;;;5.13;4.20;;;23.70;99.90;;;;;;5073607;28;20865;-79
2022/06/04 09:28:04;;;;;;;4.40;3.33;;;23.30;1.00;;;;;;5073950;28;20465;-78
2022/06/04 09:30:36;;;;;;;4.40;4.00;;;24.00;99.90;;;;;;5065004;28;20448;-78
2022/06/04 09:33:33;;;;;;;4.97;3.47;;;24.10;99.90;;;;;;5073515;28;20441;-78
2022/06/04 09:36:00;;;;;;;4.70;3.80;;;23.80;1.00;;;;;;5065480;28;20516;-79
2022/06/04 09:38:31;;;;;;;3.50;3.20;;;24.00;99.90;;;;;;5073751;28;20453;-79
2022/06/04 09:41:00;;;;;;;4.07;3.67;;;23.90;1.00;;;;;;5073462;28;20492;-78
2022/06/04 09:43:29;;;;;;;4.97;4.17;;;24.10;1.00;;;;;;5061032;28;20446;-79
2022/06/04 09:45:59;;;;;;;5.17;4.70;;;24.30;1.00;;;;;;5073098;28;20448;-78
2022/06/04 09:48:30;;;;;;;5.77;4.60;;;24.20;1.00;;;;;;5074009;28;20486;-79
2022/06/04 09:51:02;;;;;;;6.27;5.20;;;23.70;99.90;;;;;;5073469;28;20570;-79
2022/06/04 09:53:31;;;;;;;5.13;4.70;;;23.60;1.00;;;;;;5073725;28;20438;-79
2022/06/04 09:56:05;;;;;;;5.53;5.03;;;23.60;1.00;;;;;;5072677;28;20437;-79
2022/06/04 09:58:36;;;;;;;5.40;4.50;;;23.60;1.00;;;;;;5074266;28;20440;-79
2022/06/04 10:01:05;;;;;;;5.40;4.90;;;23.60;99.90;;;;;;5073688;28;20454;-78
2022/06/04 10:03:36;;;;;;;5.30;4.80;;;23.30;19.70;;;;;;5073486;28;20847;-79
2022/06/04 10:06:06;;;;;;;5.67;4.93;;;23.20;1.00;;;;;;5072302;28;20446;-79
2022/06/04 10:09:55;;;;;;;8.33;5.80;;;23.60;99.90;;;;;;5073545;28;21057;-78
2022/06/04 10:11:24;;;;;;;4.97;4.57;;;23.50;1.00;;;;;;5069743;28;20533;-80
2022/06/04 10:13:55;;;;;;;4.80;4.40;;;23.50;99.90;;;;;;5072458;28;20809;-78
2022/06/04 10:16:24;;;;;;;5.13;4.63;;;23.60;99.90;;;;;;5072900;28;20507;-78
2022/06/04 10:18:57;;;;;;;4.20;3.80;;;23.40;99.90;;;;;;5072525;28;20450;-78
2022/06/04 10:21:26;;;;;;;4.30;4.00;;;23.20;1.00;;;;;;5069898;28;20856;-78
2022/06/04 10:23:55;;;;;;;6.13;5.63;;;23.20;89.20;;;;;;5072650;28;20454;-78
2022/06/04 10:26:51;;;;;;;6.00;5.50;;;22.80;99.90;;;;;;5073215;28;20512;-78
2022/06/04 10:29:45;;;;;;;6.13;5.53;;;22.70;11.50;;;;;;5068712;28;20472;-78
2022/06/04 10:32:23;;;;;;;6.17;5.57;;;22.50;99.90;;;;;;5060247;28;20815;-76
2022/06/04 10:34:59;;;;;;;6.50;5.80;;;22.40;1.00;;;;;;5067770;28;20444;-77
2022/06/04 10:37:35;;;;;;;7.07;6.37;;;22.40;1.00;;;;;;5073014;28;20989;-80
2022/06/04 10:40:24;;;;;;;4.83;4.43;;;22.30;13.70;;;;;;5072265;28;21002;-79
2022/06/04 10:43:01;;;;;;;5.00;4.03;;;22.80;99.90;;;;;;5072815;28;20521;-78
2022/06/04 10:45:34;;;;;;;7.20;4.70;;;23.00;1.00;;;;;;5072419;28;20524;-78
2022/06/04 10:48:05;;;;;;;6.30;4.40;;;23.20;12.80;;;;;;5072134;28;20513;-79
2022/06/04 10:53:33;;;;;;;5.20;4.80;;;22.70;99.90;;;;;;5069299;28;20875;-78
2022/06/04 10:56:03;;;;;;;5.00;4.30;;;;;;;;;;5071639;28;20464;-78
2022/06/04 10:58:36;;;;;;;4.53;4.13;;;;;;;;;;5073789;28;20507;-78
2022/06/04 11:01:08;;;;;;;6.33;5.30;;;;;;;;;;5071844;28;20469;-76
2022/06/04 11:03:38;;;;;;;5.93;4.77;;;;;;;;;;5073623;28;20439;-80
2022/06/04 11:06:10;;;;;;;5.50;4.90;;;;;;;;;;5071361;28;20960;-76
2022/06/04 11:08:39;;;;;;;5.30;4.90;;;;;;;;;;5071289;28;20773;-75
2022/06/04 11:11:09;;;;;;;5.53;4.67;;;;;;;;;;5068601;28;20458;-78
2022/06/04 11:13:38;;;;;;;6.30;5.67;;;;;;;;;;5068628;28;21019;-75
2022/06/04 11:16:11;;;;;;;6.67;4.73;;;;;;;;;;5071411;28;20456;-76
2022/06/04 11:18:41;;;;;;;5.03;4.53;;;;;;;;;;5072380;28;20453;-75
2022/06/04 11:21:11;;;;;;;6.10;5.50;;;;;;;;;;5062700;28;20460;-77
2022/06/04 11:23:41;;;;;;;5.30;4.80;;;;;;;;;;5071860;28;20438;-76
2022/06/04 11:26:12;;;;;;;5.60;5.07;;;;;;;;;;5072421;28;20449;-74
2022/06/04 11:28:39;;;;;;;7.40;5.60;;;;;;;;;;5071814;28;20474;-72
2022/06/04 11:31:22;;;;;;;7.57;6.77;;;;;;;;;;5071701;28;20449;-74
2022/06/04 11:34:06;;;;;;;7.97;7.17;;;;;;;;;;5071292;28;20454;-72
2022/06/04 11:36:37;;;;;;;7.70;7.00;;;;;;;;;;5071952;28;20457;-72
2022/06/04 11:39:13;;;;;;;7.07;6.40;;;;;;;;;;5070457;28;20457;-75
2022/06/04 11:41:43;;;;;;;6.80;5.73;;;;;;;;;;5069294;28;20472;-75
2022/06/04 11:44:22;;;;;;;8.13;7.33;;;;;;;;;;5070928;28;20449;-75
2022/06/04 11:46:57;;;;;;;11.47;9.20;;;;;;;;;;5058505;28;20446;-77
2022/06/04 11:49:29;;;;;;;8.70;7.80;;;;;;;;;;5071056;28;21259;-73
2022/06/04 11:52:07;;;;;;;9.37;8.33;;;;;;;;;;5071341;28;20446;-74
2022/06/04 11:54:49;;;;;;;9.60;7.10;;;;;;;;;;5068266;28;20536;-73
2022/06/04 11:57:21;;;;;;;10.00;7.13;;;;;;;;;;5061496;28;20450;-73
2022/06/04 11:59:59;;;;;;;9.57;8.57;;;;;;;;;;5070169;28;20449;-74
2022/06/04 12:02:29;;;;;;;10.13;7.70;;;;;;;;;;5070510;28;20452;-71
2022/06/04 12:05:03;;;;;;;10.90;7.77;;;;;;;;;;5069717;28;20437;-74
2022/06/04 12:07:37;;;;;;;8.50;7.70;;;22.50;1.00;;;;;;5070776;28;20442;-74
2022/06/04 12:10:15;;;;;;;8.47;7.67;;;22.40;1.00;;;;;;5069804;28;20500;-74
2022/06/04 12:12:50;;;;;;;7.63;6.93;;;22.60;1.00;;;;;;5069842;28;20449;-79
2022/06/04 12:15:29;;;;;;;10.00;8.10;;;22.80;99.90;;;;;;5071289;28;20437;-74
2022/06/04 12:18:00;;;;;;;8.73;7.83;;;22.90;4.10;;;;;;5070337;28;20464;-71
2022/06/04 12:26:24;;;;;;;10.63;8.10;;;23.30;99.90;;;;;;5070556;28;20470;-71
2022/06/04 12:28:52;;;;;;;9.73;8.73;;;23.60;1.00;;;;;;5070601;28;20485;-71
2022/06/04 12:31:37;;;;;;;8.30;7.50;;;23.50;99.90;;;;;;5070805;28;20806;-72
2022/06/04 12:34:25;;;;;;;8.67;7.87;;;23.50;99.90;;;;;;5070254;28;20529;-72
2022/06/04 12:36:53;;;;;;;9.13;8.20;;;23.50;99.90;;;;;;5070098;28;20948;-71
2022/06/04 12:39:23;;;;;;;8.53;7.80;;;23.60;99.90;;;;;;5070583;28;20454;-71
2022/06/04 12:41:52;;;;;;;9.57;8.57;;;23.60;99.90;;;;;;5070467;28;20447;-71
2022/06/04 12:44:26;;;;;;;8.30;7.50;;;23.80;1.00;;;;;;5070474;28;20449;-71
2022/06/04 12:46:54;;;;;;;8.37;7.57;;;24.30;99.90;;;;;;5070385;28;20452;-70
2022/06/04 12:49:35;;;;;;;7.43;6.60;;;24.20;99.90;;;;;;5070697;28;20489;-71
2022/06/04 12:52:17;;;;;;;8.10;7.30;;;24.10;1.00;;;;;;5070237;28;20438;-73
2022/06/04 12:54:50;;;;;;;7.53;6.83;;;23.90;82.50;;;;;;5069431;28;20945;-71
2022/06/04 12:57:40;;;;;;;7.30;6.67;;;24.00;1.00;;;;;;5070819;28;20447;-71
2022/06/04 13:00:21;;;;;;;7.90;7.03;;;24.30;1.00;;;;;;5070786;28;20795;-72
2022/06/04 13:03:27;;;;;;;7.50;6.80;;;24.60;1.00;;;;;;5070091;28;20452;-72
2022/06/04 13:06:29;;;;;;;9.47;6.27;;;24.70;1.00;;;;;;5048540;28;20471;-72
2022/06/04 13:09:06;;;;;;;7.60;6.37;;;24.70;99.90;;;;;;5069711;28;20548;-73
2022/06/04 13:12:00;;;;;;;8.33;7.53;;;24.80;1.00;;;;;;5062571;28;20454;-75
2022/06/04 13:14:36;;;;;;;7.83;7.03;;;25.00;1.00;;;;;;5057885;28;20446;-77
2022/06/04 13:17:26;;;;;;;6.17;5.67;;;24.90;35.60;;;;;;5066934;28;20454;-74
2022/06/04 13:20:30;;;;;;;8.97;6.67;;;25.30;99.90;;;;;;5069679;28;20442;-74
2022/06/04 13:23:00;;;;;;;5.93;5.40;;;;;;;;;;5059668;28;20479;-73
2022/06/04 13:25:30;;;;;;;6.60;6.00;;;;;;;;;;5067434;28;20907;-74
2022/06/04 13:27:57;;;;;;;7.00;6.40;;;;;;;;;;5067440;28;20448;-73
2022/06/04 13:30:26;;;;;;;6.70;6.10;;;;;;;;;;5067855;28;20476;-75
2022/06/04 13:32:54;;;;;;;7.73;6.23;;;;;;;;;;5067457;28;20530;-74
2022/06/04 13:35:22;;;;;;;6.77;6.10;;;;;;;;;;5066850;28;20449;-74
2022/06/04 13:37:51;;;;;;;6.50;5.90;;;;;;;;;;5067128;28;20929;-75
2022/06/04 13:40:23;;;;;;;5.60;5.10;;;;;;;;;;5065291;28;20491;-75
2022/06/04 13:42:51;;;;;;;6.60;6.10;;;;;;;;;;5067798;28;20491;-75
2022/06/04 13:45:23;;;;;;;5.03;4.63;;;;;;;;;;5066575;28;20536;-74
2022/06/04 13:47:52;;;;;;;6.27;5.67;;;;;;;;;;5067055;28;20452;-74
2022/06/04 13:50:21;;;;;;;5.63;5.13;;;;;;;;;;5067258;28;20517;-74
2022/06/04 13:52:51;;;;;;;5.47;4.97;;;;;;;;;;5066998;28;20540;-75
2022/06/04 13:55:19;;;;;;;5.47;5.07;;;;;;;;;;5066841;28;20449;-75
2022/06/04 13:57:49;;;;;;;5.23;4.80;;;;;;;;;;5067388;28;20453;-74
2022/06/04 14:00:20;;;;;;;5.50;5.10;;;25.50;99.90;;;;;;5067851;28;20469;-74
2022/06/04 14:02:50;;;;;;;5.60;5.10;;;27.20;1.00;;;;;;5066775;28;20948;-75